createdAt,value
2018-12-12T00:00:42.634Z,70.90
2018-12-12T00:03:11.170Z,70.90
2018-12-12T00:05:39.676Z,71.10
2018-12-12T00:08:08.218Z,71.00
2018-12-12T00:10:36.650Z,71.00
2018-12-12T00:13:05.035Z,70.90
2018-12-12T00:15:33.866Z,71.10
2018-12-12T00:18:02.655Z,71.00
2018-12-12T00:20:30.981Z,71.10
2018-12-12T00:22:59.586Z,70.90
2018-12-12T00:25:27.859Z,71.00
2018-12-12T00:27:56.361Z,71.10
2018-12-12T00:30:24.735Z,71.20
2018-12-12T00:32:53.063Z,71.00
2018-12-12T00:35:21.438Z,71.10
2018-12-12T00:37:50.179Z,71.00
2018-12-12T00:40:18.556Z,71.10
2018-12-12T00:42:46.920Z,71.10
2018-12-12T00:45:15.378Z,71.10
2018-12-12T00:47:43.834Z,71.10
2018-12-12T00:50:12.339Z,71.10
2018-12-12T00:52:41.163Z,71.20
2018-12-12T00:55:09.574Z,71.10
2018-12-12T00:57:38.224Z,71.10
2018-12-12T01:00:07.367Z,71.30
2018-12-12T01:02:35.909Z,71.10
2018-12-12T01:05:04.776Z,71.10
2018-12-12T01:07:33.244Z,71.20
2018-12-12T01:10:01.806Z,71.10
2018-12-12T01:12:30.238Z,71.10
2018-12-12T01:14:58.723Z,71.10
2018-12-12T01:17:27.050Z,71.20
2018-12-12T01:19:55.446Z,71.20
2018-12-12T01:22:23.995Z,71.20
2018-12-12T01:24:52.466Z,71.50
2018-12-12T01:27:20.894Z,71.30
2018-12-12T01:29:49.639Z,71.20
2018-12-12T01:32:18.986Z,71.30
2018-12-12T01:34:47.413Z,71.20
2018-12-12T01:37:15.830Z,71.20
2018-12-12T01:39:44.274Z,71.30
2018-12-12T01:42:12.945Z,71.30
2018-12-12T01:44:41.626Z,71.30
2018-12-12T01:47:10.293Z,71.30
2018-12-12T01:49:38.702Z,72.10
2018-12-12T01:52:07.131Z,71.40
2018-12-12T01:54:35.536Z,71.40
2018-12-12T01:57:04.121Z,71.30
2018-12-12T01:59:32.731Z,71.20
2018-12-12T02:02:01.270Z,71.20
2018-12-12T02:04:32.336Z,71.40
2018-12-12T02:07:00.686Z,71.40
2018-12-12T02:09:29.032Z,71.50
2018-12-12T02:11:57.575Z,71.40
2018-12-12T02:14:26.131Z,71.70
2018-12-12T02:16:54.514Z,71.50
2018-12-12T02:19:22.907Z,71.40
2018-12-12T02:21:51.247Z,71.40
2018-12-12T02:24:19.699Z,71.40
2018-12-12T02:26:48.444Z,71.40
2018-12-12T02:29:16.901Z,71.40
2018-12-12T02:31:45.271Z,71.20
2018-12-12T02:34:13.667Z,71.30
2018-12-12T02:36:42.241Z,71.30
2018-12-12T02:39:10.831Z,71.40
2018-12-12T02:41:39.356Z,71.30
2018-12-12T02:44:07.673Z,71.40
2018-12-12T02:46:35.988Z,71.40
2018-12-12T02:49:04.560Z,71.30
2018-12-12T02:51:32.973Z,71.40
2018-12-12T02:54:01.349Z,71.40
2018-12-12T02:56:30.218Z,71.40
2018-12-12T02:58:58.591Z,71.30
2018-12-12T03:01:27.281Z,71.20
2018-12-12T03:03:56.431Z,71.20
2018-12-12T03:06:24.140Z,71.20
2018-12-12T03:08:52.659Z,71.20
2018-12-12T03:11:22.970Z,71.20
2018-12-12T03:13:51.818Z,71.30
2018-12-12T03:16:20.495Z,71.20
2018-12-12T03:18:49.174Z,71.20
2018-12-12T03:21:17.555Z,71.30
2018-12-12T03:23:46.327Z,71.30
2018-12-12T03:26:14.747Z,71.50
2018-12-12T03:28:43.655Z,71.60
2018-12-12T03:31:12.355Z,71.40
2018-12-12T03:33:40.734Z,71.40
2018-12-12T03:36:08.321Z,71.30
2018-12-12T03:38:36.866Z,71.40
2018-12-12T03:41:05.323Z,71.20
2018-12-12T03:43:33.698Z,71.30
2018-12-12T03:46:02.123Z,71.30
2018-12-12T03:48:30.625Z,71.50
2018-12-12T03:50:59.105Z,71.40
2018-12-12T03:53:27.440Z,71.60
2018-12-12T03:55:56.011Z,71.50
2018-12-12T03:58:24.338Z,71.40
2018-12-12T04:00:52.834Z,71.40
2018-12-12T04:03:21.214Z,71.50
2018-12-12T04:05:49.602Z,71.50
2018-12-12T04:08:18.257Z,71.50
2018-12-12T04:10:46.837Z,71.30
2018-12-12T04:13:16.006Z,71.70
2018-12-12T04:15:44.318Z,71.50
2018-12-12T04:18:12.737Z,71.50
2018-12-12T04:20:41.217Z,71.50
2018-12-12T04:25:37.387Z,71.50
2018-12-12T04:28:05.930Z,71.50
2018-12-12T04:30:34.520Z,71.50
2018-12-12T04:33:03.080Z,71.60
2018-12-12T04:35:31.523Z,71.60
2018-12-12T04:38:00.743Z,71.80
2018-12-12T04:40:30.106Z,71.50
2018-12-12T04:42:58.523Z,71.60
2018-12-12T04:45:26.979Z,71.60
2018-12-12T04:47:55.666Z,71.70
2018-12-12T04:50:24.237Z,71.50
2018-12-12T04:52:52.609Z,71.80
2018-12-12T04:55:21.221Z,71.90
2018-12-12T04:57:50.092Z,71.50
2018-12-12T05:00:18.744Z,71.60
2018-12-12T05:02:48.109Z,71.60
2018-12-12T05:05:16.678Z,71.60
2018-12-12T05:07:45.416Z,71.70
2018-12-12T05:10:13.834Z,71.60
2018-12-12T05:12:42.145Z,71.60
2018-12-12T05:15:10.526Z,71.70
2018-12-12T05:17:38.905Z,72.60
2018-12-12T05:20:07.425Z,71.90
2018-12-12T05:22:35.993Z,71.90
2018-12-12T05:25:04.586Z,71.90
2018-12-12T05:27:33.037Z,71.90
2018-12-12T05:30:01.478Z,71.80
2018-12-12T05:32:30.430Z,71.90
2018-12-12T05:34:58.106Z,71.80
2018-12-12T05:37:26.567Z,71.80
2018-12-12T05:39:55.149Z,71.90
2018-12-12T05:42:23.467Z,71.80
2018-12-12T05:44:51.878Z,72.00
2018-12-12T05:47:20.719Z,72.00
2018-12-12T05:49:49.342Z,71.40
2018-12-12T05:52:17.986Z,71.90
2018-12-12T05:54:46.775Z,72.80
2018-12-12T05:57:15.280Z,71.90
2018-12-12T05:59:43.666Z,71.90
2018-12-12T06:02:12.282Z,72.10
2018-12-12T06:04:40.639Z,71.90
2018-12-12T06:07:09.019Z,72.10
2018-12-12T06:09:37.537Z,72.00
2018-12-12T06:12:06.817Z,72.00
2018-12-12T06:14:35.173Z,72.10
2018-12-12T06:17:03.818Z,72.10
2018-12-12T06:19:32.363Z,72.10
2018-12-12T06:22:00.869Z,71.90
2018-12-12T06:24:29.513Z,72.00
2018-12-12T06:26:58.369Z,72.10
2018-12-12T06:29:27.054Z,72.00
2018-12-12T06:31:55.828Z,72.20
2018-12-12T06:34:24.283Z,72.10
2018-12-12T06:36:52.862Z,72.50
2018-12-12T06:39:21.477Z,72.60
2018-12-12T06:41:49.956Z,72.60
2018-12-12T06:44:18.331Z,72.90
2018-12-12T06:46:46.762Z,72.80
2018-12-12T06:49:15.146Z,73.30
2018-12-12T06:51:43.676Z,73.30
2018-12-12T06:54:12.335Z,73.10
2018-12-12T06:56:41.689Z,73.30
2018-12-12T06:59:10.346Z,73.40
2018-12-12T07:01:39.130Z,73.30
2018-12-12T07:06:42.355Z,73.30
2018-12-12T07:09:11.019Z,73.20
2018-12-12T07:11:39.506Z,73.30
2018-12-12T07:16:34.294Z,73.00
2018-12-12T07:21:58.210Z,73.20
2018-12-12T07:26:52.850Z,73.20
2018-12-12T07:29:21.226Z,73.30
2018-12-12T07:31:49.696Z,73.40
2018-12-12T07:34:21.506Z,73.40
2018-12-12T07:36:50.109Z,73.40
2018-12-12T07:39:19.144Z,73.40
2018-12-12T07:41:48.011Z,73.60
2018-12-12T07:44:15.895Z,73.50
2018-12-12T07:46:44.520Z,73.80
2018-12-12T07:49:13.349Z,74.00
2018-12-12T07:51:41.814Z,73.90
2018-12-12T07:54:10.441Z,74.10
2018-12-12T07:56:39.051Z,74.10
2018-12-12T07:59:07.343Z,73.90
2018-12-12T08:01:35.913Z,74.10
2018-12-12T08:04:04.399Z,74.60
2018-12-12T08:06:32.750Z,74.40
2018-12-12T08:09:01.225Z,74.30
2018-12-12T08:11:30.246Z,74.30
2018-12-12T08:13:58.829Z,74.30
2018-12-12T08:16:27.200Z,74.50
2018-12-12T08:18:55.775Z,74.10
2018-12-12T08:21:24.334Z,74.10
2018-12-12T08:23:52.763Z,75.00
2018-12-12T08:26:21.162Z,74.40
2018-12-12T08:28:49.588Z,74.60
2018-12-12T08:31:17.987Z,74.60
2018-12-12T08:33:45.950Z,74.40
2018-12-12T08:36:14.342Z,74.30
2018-12-12T08:38:42.794Z,74.60
2018-12-12T08:41:11.298Z,74.10
2018-12-12T08:43:39.632Z,74.20
2018-12-12T08:46:07.974Z,74.70
2018-12-12T08:48:36.811Z,74.20
2018-12-12T08:53:33.620Z,74.20
2018-12-12T08:56:02.983Z,74.30
2018-12-12T08:58:31.587Z,74.50
2018-12-12T09:01:00.044Z,74.50
2018-12-12T09:03:28.815Z,75.40
2018-12-12T09:05:57.170Z,75.40
2018-12-12T09:08:25.607Z,74.70
2018-12-12T09:10:54.006Z,74.60
2018-12-12T09:13:22.549Z,74.80
2018-12-12T09:15:51.313Z,75.10
2018-12-12T09:18:19.850Z,75.20
2018-12-12T09:20:48.479Z,74.70
2018-12-12T09:23:16.862Z,75.10
2018-12-12T09:25:45.291Z,75.10
2018-12-12T09:28:13.443Z,75.00
2018-12-12T09:30:41.812Z,74.90
2018-12-12T09:33:10.342Z,75.10
2018-12-12T09:35:38.722Z,75.10
2018-12-12T09:38:07.340Z,75.10
2018-12-12T09:40:35.943Z,75.10
2018-12-12T09:43:04.450Z,75.30
2018-12-12T09:45:32.860Z,75.60
2018-12-12T09:48:01.356Z,75.80
2018-12-12T09:50:29.955Z,75.40
2018-12-12T09:52:58.396Z,75.70
2018-12-12T09:55:27.339Z,75.90
2018-12-12T09:57:56.018Z,76.00
2018-12-12T10:00:24.679Z,76.10
2018-12-12T10:02:53.202Z,75.90
2018-12-12T10:05:21.778Z,76.10
2018-12-12T10:07:50.322Z,75.90
2018-12-12T10:10:18.683Z,75.80
2018-12-12T10:12:47.114Z,76.10
2018-12-12T10:15:15.673Z,76.20
2018-12-12T10:17:44.931Z,76.10
2018-12-12T10:20:13.491Z,75.90
2018-12-12T10:22:42.758Z,76.20
2018-12-12T10:25:11.300Z,76.50
2018-12-12T10:27:39.678Z,76.30
2018-12-12T10:30:08.460Z,76.80
2018-12-12T10:32:37.078Z,76.80
2018-12-12T10:35:06.650Z,76.70
2018-12-12T10:37:34.961Z,76.60
2018-12-12T10:40:04.116Z,76.80
2018-12-12T10:42:32.473Z,76.80
2018-12-12T10:45:00.992Z,76.80
2018-12-12T10:47:29.371Z,77.10
2018-12-12T10:49:57.811Z,76.70
2018-12-12T10:52:26.511Z,76.80
2018-12-12T10:54:55.022Z,77.10
2018-12-12T10:57:23.976Z,76.80
2018-12-12T10:59:52.318Z,77.00
2018-12-12T11:02:26.134Z,76.50
2018-12-12T11:04:54.798Z,76.40
2018-12-12T11:07:23.282Z,76.10
2018-12-12T11:09:52.588Z,75.60
2018-12-12T11:12:21.368Z,75.40
2018-12-12T11:14:49.935Z,76.30
2018-12-12T11:17:18.419Z,75.60
2018-12-12T11:19:48.174Z,75.00
2018-12-12T11:22:16.797Z,75.40
2018-12-12T11:24:45.275Z,75.30
2018-12-12T11:27:13.886Z,74.60
2018-12-12T11:29:42.252Z,75.60
2018-12-12T11:32:10.912Z,75.10
2018-12-12T11:34:39.291Z,75.60
2018-12-12T11:37:13.352Z,74.50
2018-12-12T11:39:41.997Z,75.60
2018-12-12T11:42:10.461Z,74.60
2018-12-12T11:44:39.027Z,75.00
2018-12-12T11:47:07.714Z,75.10
2018-12-12T11:49:36.182Z,74.90
2018-12-12T11:52:05.456Z,74.50
2018-12-12T11:54:34.319Z,74.20
2018-12-12T11:57:02.786Z,73.80
2018-12-12T11:59:31.291Z,73.60
2018-12-12T12:01:59.660Z,73.80
2018-12-12T12:04:28.172Z,73.00
2018-12-12T12:06:56.699Z,72.60
2018-12-12T12:09:25.461Z,72.90
2018-12-12T12:11:54.083Z,73.70
2018-12-12T12:14:22.989Z,73.20
2018-12-12T12:16:51.715Z,73.80
2018-12-12T12:19:20.035Z,73.70
2018-12-12T12:21:48.725Z,73.30
2018-12-12T12:24:17.447Z,73.80
2018-12-12T12:26:45.985Z,73.30
2018-12-12T12:29:14.800Z,72.90
2018-12-12T12:31:43.493Z,72.60
2018-12-12T12:34:12.076Z,73.40
2018-12-12T12:36:40.476Z,73.20
2018-12-12T12:39:09.121Z,72.90
2018-12-12T12:41:37.640Z,73.60
2018-12-12T12:44:06.166Z,73.00
2018-12-12T12:46:34.617Z,72.40
2018-12-12T12:49:03.145Z,72.00
2018-12-12T12:51:31.612Z,73.40
2018-12-12T12:54:00.189Z,72.80
2018-12-12T12:56:28.755Z,72.50
2018-12-12T12:58:57.323Z,71.70
2018-12-12T13:01:25.746Z,71.80
2018-12-12T13:03:54.323Z,73.00
2018-12-12T13:06:22.840Z,71.70
2018-12-12T13:08:51.273Z,70.20
2018-12-12T13:11:19.748Z,69.20
2018-12-12T13:13:48.183Z,72.10
2018-12-12T13:16:16.722Z,71.60
2018-12-12T13:18:45.123Z,72.10
2018-12-12T13:21:13.706Z,70.10
2018-12-12T13:23:42.203Z,70.50
2018-12-12T13:26:11.577Z,69.10
2018-12-12T13:28:39.931Z,72.10
2018-12-12T13:31:08.362Z,70.40
2018-12-12T13:33:36.779Z,69.50
2018-12-12T13:36:05.256Z,70.90
2018-12-12T13:38:33.839Z,71.90
2018-12-12T13:41:02.218Z,71.60
2018-12-12T13:43:30.764Z,71.90
2018-12-12T13:45:59.082Z,71.60
2018-12-12T13:48:27.703Z,70.10
2018-12-12T13:50:56.075Z,70.10
2018-12-12T13:53:24.667Z,70.20
2018-12-12T13:55:53.221Z,69.90
2018-12-12T13:58:21.789Z,68.40
2018-12-12T14:00:50.236Z,70.60
2018-12-12T14:03:18.554Z,70.10
2018-12-12T14:05:47.074Z,70.20
2018-12-12T14:08:15.673Z,70.80
2018-12-12T14:10:44.495Z,68.90
2018-12-12T14:13:13.374Z,69.70
2018-12-12T14:15:41.995Z,69.50
2018-12-12T14:18:10.393Z,70.90
2018-12-12T14:20:39.063Z,69.80
2018-12-12T14:23:07.588Z,69.70
2018-12-12T14:25:35.919Z,68.80
2018-12-12T14:28:04.741Z,69.00
2018-12-12T14:30:33.470Z,70.50
2018-12-12T14:33:02.120Z,69.50
2018-12-12T14:35:30.619Z,69.20
2018-12-12T14:37:59.098Z,68.20
2018-12-12T14:40:27.579Z,70.60
2018-12-12T14:42:56.343Z,71.40
2018-12-12T14:45:25.038Z,69.00
2018-12-12T14:47:53.569Z,69.20
2018-12-12T14:50:22.702Z,70.50
2018-12-12T14:52:51.097Z,70.00
2018-12-12T14:55:19.536Z,71.00
2018-12-12T14:57:48.215Z,70.50
2018-12-12T15:00:17.069Z,69.40
2018-12-12T15:02:48.570Z,71.20
2018-12-12T15:05:20.360Z,71.00
2018-12-12T15:07:50.389Z,70.40
2018-12-12T15:10:23.406Z,70.10
2018-12-12T15:15:20.257Z,70.20
2018-12-12T15:17:48.706Z,70.80
2018-12-12T15:20:17.152Z,70.00
2018-12-12T15:22:45.585Z,69.60
2018-12-12T15:25:15.406Z,69.60
2018-12-12T15:27:44.024Z,69.20
2018-12-12T15:30:12.853Z,71.10
2018-12-12T15:32:41.361Z,70.20
2018-12-12T15:35:10.204Z,71.10
2018-12-12T15:37:39.262Z,71.10
2018-12-12T15:40:08.999Z,70.90
2018-12-12T15:42:37.430Z,71.50
2018-12-12T15:45:07.135Z,71.60
2018-12-12T15:47:35.646Z,70.00
2018-12-12T15:50:04.531Z,70.30
2018-12-12T15:52:32.909Z,71.60
2018-12-12T15:55:01.747Z,70.40
2018-12-12T15:57:30.212Z,71.30
2018-12-12T15:59:59.277Z,70.80
2018-12-12T16:02:27.882Z,70.00
2018-12-12T16:04:56.313Z,69.70
2018-12-12T16:07:24.209Z,69.20
2018-12-12T16:09:52.701Z,68.10
2018-12-12T16:12:21.069Z,69.00
2018-12-12T16:14:49.577Z,69.70
2018-12-12T16:17:17.958Z,67.20
2018-12-12T16:19:46.390Z,68.70
2018-12-12T16:22:15.034Z,68.50
2018-12-12T16:24:43.401Z,68.80
2018-12-12T16:27:11.913Z,66.50
2018-12-12T16:29:40.322Z,68.30
2018-12-12T16:32:08.832Z,67.60
2018-12-12T16:34:37.377Z,68.40
2018-12-12T16:37:06.707Z,68.10
2018-12-12T16:39:36.171Z,66.50
2018-12-12T16:42:11.444Z,66.60
2018-12-12T16:44:39.950Z,67.10
2018-12-12T16:47:08.863Z,68.10
2018-12-12T16:49:37.615Z,66.50
2018-12-12T16:52:06.090Z,65.70
2018-12-12T16:54:34.902Z,66.30
2018-12-12T16:57:13.414Z,66.30
2018-12-12T16:59:47.151Z,67.30
2018-12-12T17:02:19.029Z,63.10
2018-12-12T17:04:47.860Z,64.00
2018-12-12T17:07:16.253Z,65.40
2018-12-12T17:12:12.461Z,66.40
2018-12-12T17:14:40.893Z,67.20
2018-12-12T17:17:09.200Z,65.10
2018-12-12T17:19:37.797Z,66.20
2018-12-12T17:22:07.528Z,67.20
2018-12-12T17:24:36.252Z,67.20
2018-12-12T17:27:05.123Z,66.50
2018-12-12T17:29:33.779Z,67.30
2018-12-12T17:32:02.103Z,68.40
2018-12-12T17:34:31.229Z,68.10
2018-12-12T17:36:59.758Z,68.50
2018-12-12T17:39:28.379Z,68.70
2018-12-12T17:41:56.842Z,69.10
2018-12-12T17:44:25.650Z,68.40
2018-12-12T17:46:54.417Z,67.60
2018-12-12T17:49:22.834Z,67.00
2018-12-12T17:51:51.554Z,68.40
2018-12-12T17:54:20.037Z,67.70
2018-12-12T17:56:48.751Z,66.40
2018-12-12T17:59:17.196Z,66.80
2018-12-12T18:01:45.722Z,67.30
2018-12-12T18:06:42.116Z,65.20
2018-12-12T18:09:10.511Z,67.20
2018-12-12T18:11:39.071Z,65.40
2018-12-12T18:14:07.514Z,66.50
2018-12-12T18:16:36.000Z,65.00
2018-12-12T18:19:04.693Z,66.00
2018-12-12T18:23:59.015Z,67.90
2018-12-12T18:26:27.458Z,67.20
2018-12-12T18:28:56.298Z,67.40
2018-12-12T18:31:24.957Z,67.20
2018-12-12T18:33:53.787Z,67.00
2018-12-12T18:36:22.202Z,66.60
2018-12-12T18:38:50.571Z,66.90
2018-12-12T18:41:18.562Z,66.90
2018-12-12T18:43:47.921Z,67.20
2018-12-12T18:46:17.202Z,67.00
2018-12-12T18:48:46.658Z,67.10
2018-12-12T18:51:16.416Z,66.50
2018-12-12T18:53:44.090Z,66.90
2018-12-12T18:56:13.339Z,67.40
2018-12-12T19:01:09.063Z,67.30
2018-12-12T19:03:38.213Z,67.30
2018-12-12T19:06:08.557Z,67.60
2018-12-12T19:08:37.974Z,67.30
2018-12-12T19:11:07.394Z,67.90
2018-12-12T19:13:36.895Z,67.80
2018-12-12T19:16:06.070Z,67.30
2018-12-12T19:18:34.970Z,67.20
2018-12-12T19:21:04.129Z,68.20
2018-12-12T19:23:33.489Z,68.50
2018-12-12T19:26:03.006Z,67.20
2018-12-12T19:28:32.714Z,67.60
2018-12-12T19:31:01.760Z,68.10
2018-12-12T19:33:30.881Z,68.20
2018-12-12T19:36:00.313Z,68.10
2018-12-12T19:38:29.308Z,68.30
2018-12-12T19:40:58.264Z,69.30
2018-12-12T19:43:27.797Z,68.70
2018-12-12T19:45:56.828Z,69.30
2018-12-12T19:48:25.888Z,69.00
2018-12-12T19:50:55.569Z,70.20
2018-12-12T19:53:24.520Z,69.50
2018-12-12T19:55:53.837Z,69.80
2018-12-12T19:58:23.526Z,69.40
2018-12-12T20:00:52.923Z,69.90
2018-12-12T20:03:22.162Z,70.20
2018-12-12T20:05:51.263Z,69.80
2018-12-12T20:08:20.271Z,69.90
2018-12-12T20:10:49.750Z,70.00
2018-12-12T20:13:19.089Z,70.50
2018-12-12T20:15:48.278Z,71.10
2018-12-12T20:18:17.928Z,70.10
2018-12-12T20:20:47.374Z,70.10
2018-12-12T20:23:16.621Z,70.90
2018-12-12T20:25:46.026Z,71.10
2018-12-12T20:28:15.467Z,70.40
2018-12-12T20:30:44.951Z,70.70
2018-12-12T20:33:14.933Z,70.90
2018-12-12T20:35:48.093Z,70.80
2018-12-12T20:38:15.338Z,71.10
2018-12-12T20:40:44.511Z,71.20
2018-12-12T20:43:13.585Z,71.60
2018-12-12T20:45:42.482Z,71.40
2018-12-12T20:48:12.581Z,71.30
2018-12-12T20:50:41.730Z,71.10
2018-12-12T20:53:11.052Z,71.80
2018-12-12T20:55:40.097Z,71.90
2018-12-12T20:58:09.476Z,72.10
2018-12-12T21:00:38.689Z,72.00
2018-12-12T21:03:07.741Z,71.80
2018-12-12T21:05:36.689Z,72.00
2018-12-12T21:08:06.015Z,72.30
2018-12-12T21:10:35.100Z,72.10
2018-12-12T21:13:04.659Z,71.80
2018-12-12T21:15:33.728Z,72.00
2018-12-12T21:18:03.915Z,72.50
2018-12-12T21:20:33.323Z,72.40
2018-12-12T21:23:02.874Z,72.10
2018-12-12T21:25:33.313Z,72.40
2018-12-12T21:28:02.632Z,72.20
2018-12-12T21:30:32.351Z,72.60
2018-12-12T21:38:08.475Z,73.10
2018-12-12T21:40:42.765Z,72.70
2018-12-12T21:43:13.119Z,72.90
2018-12-12T21:45:43.243Z,73.30
2018-12-12T21:48:12.881Z,73.20
2018-12-12T21:53:07.394Z,72.90
2018-12-12T21:55:37.875Z,73.40
2018-12-12T21:58:08.444Z,73.40
2018-12-12T22:00:37.769Z,73.60
2018-12-12T22:03:07.423Z,73.40
2018-12-12T22:05:38.100Z,73.70
2018-12-12T22:21:52.212Z,73.30
2018-12-12T22:27:15.414Z,73.60
2018-12-12T22:29:43.840Z,73.30
2018-12-12T22:35:13.025Z,73.10
2018-12-12T22:37:42.655Z,73.10
2018-12-12T22:40:12.841Z,73.30
2018-12-12T22:42:41.856Z,73.60
2018-12-12T22:45:10.635Z,73.30
2018-12-12T22:47:40.673Z,73.60
2018-12-12T22:50:09.083Z,73.40
2018-12-12T22:52:37.494Z,73.20
2018-12-12T22:55:06.209Z,73.10
2018-12-12T22:57:34.780Z,73.40
2018-12-12T23:00:04.005Z,73.30
2018-12-12T23:02:32.533Z,73.30
2018-12-12T23:05:01.029Z,73.60
2018-12-12T23:07:29.366Z,73.40
2018-12-12T23:09:57.953Z,73.10
2018-12-12T23:12:27.475Z,73.60
2018-12-12T23:14:57.029Z,73.40
2018-12-12T23:17:25.584Z,73.30
2018-12-12T23:19:54.005Z,73.60
2018-12-12T23:22:22.500Z,73.80
2018-12-12T23:24:51.188Z,73.90
2018-12-12T23:27:19.873Z,73.70
2018-12-12T23:29:48.592Z,74.00
2018-12-12T23:32:17.265Z,74.20
2018-12-12T23:34:45.824Z,74.10
2018-12-12T23:37:14.331Z,74.10
2018-12-12T23:39:42.926Z,74.20
2018-12-12T23:42:11.547Z,74.10
2018-12-12T23:44:40.156Z,74.20
2018-12-12T23:47:09.114Z,73.90
2018-12-12T23:49:37.876Z,74.00
2018-12-12T23:52:07.482Z,74.10
2018-12-12T23:54:36.067Z,73.90
2018-12-12T23:57:04.615Z,73.80
2018-12-12T23:59:34.129Z,74.10
